createdAt,value
2023-01-06T00:01:11.758Z,3.30
2023-01-06T00:03:38.935Z,3.27
2023-01-06T00:06:07.740Z,5.53
2023-01-06T00:08:35.812Z,4.17
2023-01-06T00:11:10.614Z,3.83
2023-01-06T00:13:38.398Z,4.57
2023-01-06T00:16:11.065Z,5.83
2023-01-06T00:18:38.918Z,5.73
2023-01-06T00:21:07.312Z,6.70
2023-01-06T00:23:35.445Z,6.07
2023-01-06T00:26:03.702Z,5.57
2023-01-06T00:28:31.082Z,5.80
2023-01-06T00:30:59.092Z,5.43
2023-01-06T00:33:26.220Z,5.70
2023-01-06T00:35:53.031Z,7.00
2023-01-06T00:38:20.091Z,10.10
2023-01-06T00:40:47.478Z,7.13
2023-01-06T00:43:14.564Z,9.63
2023-01-06T00:45:41.365Z,9.97
2023-01-06T00:48:08.925Z,6.70
2023-01-06T00:50:36.086Z,7.63
2023-01-06T00:53:03.197Z,8.73
2023-01-06T00:55:30.022Z,9.37
2023-01-06T00:57:57.103Z,8.60
2023-01-06T01:00:23.956Z,7.77
2023-01-06T01:02:51.082Z,10.23
2023-01-06T01:05:18.100Z,10.07
2023-01-06T01:07:45.178Z,12.03
2023-01-06T01:10:12.283Z,10.63
2023-01-06T01:12:39.375Z,10.30
2023-01-06T01:15:06.588Z,13.97
2023-01-06T01:17:33.784Z,12.17
2023-01-06T01:20:01.256Z,13.77
2023-01-06T01:22:30.601Z,11.20
2023-01-06T01:24:57.414Z,13.70
2023-01-06T01:27:24.756Z,9.00
2023-01-06T01:29:52.816Z,13.90
2023-01-06T01:32:19.912Z,11.60
2023-01-06T01:34:46.735Z,10.63
2023-01-06T01:37:14.176Z,12.40
2023-01-06T01:39:41.878Z,9.80
2023-01-06T01:42:17.935Z,10.60
2023-01-06T01:44:58.726Z,11.70
2023-01-06T01:47:26.716Z,9.30
2023-01-06T01:49:57.949Z,6.87
2023-01-06T01:52:25.795Z,6.83
2023-01-06T01:54:55.284Z,8.43
2023-01-06T01:57:36.785Z,6.47
2023-01-06T02:00:07.905Z,8.53
2023-01-06T02:02:42.263Z,6.83
2023-01-06T02:05:13.051Z,6.70
2023-01-06T02:07:40.805Z,6.27
2023-01-06T02:10:18.660Z,5.20
2023-01-06T02:12:49.317Z,5.87
2023-01-06T02:15:29.259Z,5.73
2023-01-06T02:17:59.547Z,8.27
2023-01-06T02:20:47.400Z,7.47
2023-01-06T02:23:25.823Z,8.50
2023-01-06T02:26:18.149Z,7.10
2023-01-06T02:29:01.625Z,4.37
2023-01-06T02:31:31.584Z,6.70
2023-01-06T02:34:39.826Z,6.53
2023-01-06T02:37:11.247Z,4.80
2023-01-06T02:40:09.501Z,5.53
2023-01-06T02:42:46.690Z,5.20
2023-01-06T02:45:51.673Z,5.17
2023-01-06T02:48:49.586Z,5.83
2023-01-06T02:51:24.785Z,5.07
2023-01-06T02:54:12.095Z,5.53
2023-01-06T02:56:49.147Z,3.60
2023-01-06T02:59:25.764Z,6.40
2023-01-06T03:01:55.686Z,5.73
2023-01-06T03:04:27.491Z,6.97
2023-01-06T03:06:58.857Z,5.27
2023-01-06T03:09:31.852Z,6.30
2023-01-06T03:12:06.195Z,5.40
2023-01-06T03:14:37.827Z,8.03
2023-01-06T03:17:05.052Z,6.73
2023-01-06T03:19:32.436Z,7.67
2023-01-06T03:22:02.743Z,8.07
2023-01-06T03:24:29.533Z,8.07
2023-01-06T03:26:58.954Z,8.83
2023-01-06T03:29:26.826Z,8.77
2023-01-06T03:32:09.615Z,9.20
2023-01-06T03:34:55.677Z,8.77
2023-01-06T03:37:47.467Z,9.37
2023-01-06T03:40:31.748Z,7.50
2023-01-06T03:43:25.887Z,7.60
2023-01-06T03:45:59.743Z,8.73
2023-01-06T03:49:04.945Z,7.63
2023-01-06T03:51:49.400Z,7.73
2023-01-06T03:54:27.087Z,7.07
2023-01-06T03:57:07.670Z,6.00
2023-01-06T03:59:43.000Z,8.63
2023-01-06T04:02:10.642Z,7.87
2023-01-06T04:04:37.880Z,8.67
2023-01-06T04:07:05.355Z,9.97
2023-01-06T04:09:36.913Z,7.93
2023-01-06T04:12:23.765Z,7.23
2023-01-06T04:14:53.937Z,7.07
2023-01-06T04:17:20.731Z,7.07
2023-01-06T04:19:47.787Z,6.73
2023-01-06T04:22:14.527Z,7.47
2023-01-06T04:24:41.777Z,6.57
2023-01-06T04:27:09.415Z,7.63
2023-01-06T04:29:37.006Z,9.47
2023-01-06T04:32:04.047Z,10.67
2023-01-06T04:34:31.434Z,12.67
2023-01-06T04:36:58.741Z,11.43
2023-01-06T04:39:25.773Z,10.43
2023-01-06T04:41:52.546Z,12.83
2023-01-06T04:44:19.538Z,8.03
2023-01-06T04:46:46.448Z,9.47
2023-01-06T04:49:13.581Z,8.00
2023-01-06T04:51:40.349Z,8.70
2023-01-06T04:54:07.475Z,8.53
2023-01-06T04:56:34.195Z,8.23
2023-01-06T04:59:01.311Z,9.77
2023-01-06T05:01:28.201Z,10.00
2023-01-06T05:03:55.368Z,8.67
2023-01-06T05:06:22.147Z,8.53
2023-01-06T05:08:49.224Z,7.63
2023-01-06T05:11:21.855Z,7.67
2023-01-06T05:13:49.645Z,6.80
2023-01-06T05:16:26.583Z,8.00
2023-01-06T05:18:55.109Z,6.77
2023-01-06T05:21:24.012Z,6.97
2023-01-06T05:23:52.267Z,6.80
2023-01-06T05:26:22.319Z,7.13
2023-01-06T05:28:49.737Z,6.57
2023-01-06T05:31:16.971Z,7.63
2023-01-06T05:33:44.062Z,12.47
2023-01-06T05:36:13.439Z,7.63
2023-01-06T05:38:40.863Z,9.20
2023-01-06T05:41:08.076Z,7.63
2023-01-06T05:43:36.658Z,8.13
2023-01-06T05:46:08.476Z,7.67
2023-01-06T05:48:36.575Z,12.27
2023-01-06T05:51:09.048Z,13.23
2023-01-06T05:53:39.035Z,8.53
2023-01-06T05:56:07.669Z,11.00
2023-01-06T05:58:35.486Z,8.73
2023-01-06T06:01:04.395Z,7.93
2023-01-06T06:03:32.903Z,9.23
2023-01-06T06:06:04.566Z,18.63
2023-01-06T06:08:31.785Z,65.00
2023-01-06T06:11:12.046Z,41.07
2023-01-06T06:13:40.003Z,30.50
2023-01-06T06:16:12.402Z,23.73
2023-01-06T06:18:44.169Z,20.70
2023-01-06T06:21:16.865Z,34.37
2023-01-06T06:23:44.206Z,23.20
2023-01-06T06:26:12.123Z,20.40
2023-01-06T06:28:40.287Z,11.13
2023-01-06T06:31:13.409Z,9.63
2023-01-06T06:33:41.199Z,8.10
2023-01-06T06:36:15.554Z,10.37
2023-01-06T06:38:47.208Z,9.47
2023-01-06T06:41:14.475Z,9.37
2023-01-06T06:43:42.158Z,11.07
2023-01-06T06:46:09.415Z,10.63
2023-01-06T06:48:37.346Z,9.53
2023-01-06T06:51:10.370Z,12.20
2023-01-06T06:53:38.670Z,9.93
2023-01-06T06:56:07.536Z,9.87
2023-01-06T06:58:34.967Z,9.00
2023-01-06T07:01:05.656Z,7.73
2023-01-06T07:03:32.822Z,10.80
2023-01-06T07:06:00.325Z,13.20
2023-01-06T07:08:27.788Z,12.20
2023-01-06T07:10:54.919Z,15.77
2023-01-06T07:13:21.931Z,15.90
2023-01-06T07:15:48.743Z,15.43
2023-01-06T07:18:15.931Z,12.33
2023-01-06T07:20:47.766Z,11.30
2023-01-06T07:23:14.808Z,10.60
2023-01-06T07:25:41.516Z,9.43
2023-01-06T07:28:09.508Z,14.83
2023-01-06T07:30:37.053Z,31.80
2023-01-06T07:33:04.743Z,29.90
2023-01-06T07:35:31.506Z,27.73
2023-01-06T07:38:06.262Z,29.37
2023-01-06T07:40:33.580Z,26.50
2023-01-06T07:43:08.968Z,18.53
2023-01-06T07:45:36.896Z,17.40
2023-01-06T07:48:04.494Z,16.03
2023-01-06T07:50:31.811Z,15.63
2023-01-06T07:53:00.961Z,16.80
2023-01-06T07:55:28.089Z,13.83
2023-01-06T07:57:55.348Z,21.03
2023-01-06T08:00:22.337Z,23.00
2023-01-06T08:02:49.393Z,38.47
2023-01-06T08:05:17.838Z,28.70
2023-01-06T08:07:45.003Z,24.73
2023-01-06T08:10:12.681Z,21.57
2023-01-06T08:12:39.895Z,19.00
2023-01-06T08:15:07.167Z,16.57
2023-01-06T08:17:34.253Z,14.77
2023-01-06T08:20:01.040Z,14.90
2023-01-06T08:22:28.057Z,11.70
2023-01-06T08:24:54.805Z,16.77
2023-01-06T08:27:22.180Z,18.67
2023-01-06T08:29:50.084Z,17.27
2023-01-06T08:32:17.522Z,11.67
2023-01-06T08:34:44.319Z,10.73
2023-01-06T08:37:11.373Z,13.03
2023-01-06T08:39:38.316Z,11.23
2023-01-06T08:42:05.619Z,11.77
2023-01-06T08:44:32.414Z,11.17
2023-01-06T08:46:59.802Z,15.03
2023-01-06T08:49:26.587Z,13.30
2023-01-06T08:51:53.767Z,9.73
2023-01-06T08:54:20.634Z,13.20
2023-01-06T08:56:47.743Z,10.30
2023-01-06T08:59:17.091Z,13.97
2023-01-06T09:01:45.139Z,14.13
2023-01-06T09:04:12.722Z,13.70
2023-01-06T09:06:42.962Z,13.47
2023-01-06T09:09:13.876Z,17.97
2023-01-06T09:11:43.257Z,11.13
2023-01-06T09:14:11.794Z,14.27
2023-01-06T09:16:38.836Z,14.13
2023-01-06T09:19:05.600Z,13.00
2023-01-06T09:21:32.612Z,11.97
2023-01-06T09:23:59.482Z,16.10
2023-01-06T09:26:26.542Z,13.60
2023-01-06T09:28:53.357Z,17.40
2023-01-06T09:31:20.465Z,24.83
2023-01-06T09:33:47.446Z,13.67
2023-01-06T09:36:14.394Z,12.27
2023-01-06T09:38:41.184Z,12.47
2023-01-06T09:41:35.703Z,10.57
2023-01-06T09:44:24.602Z,10.27
2023-01-06T09:46:52.764Z,15.23
2023-01-06T09:49:41.312Z,16.50
2023-01-06T09:52:22.352Z,16.70
2023-01-06T09:55:14.073Z,12.13
2023-01-06T09:57:47.797Z,13.60
2023-01-06T10:00:26.814Z,10.97
2023-01-06T10:02:54.216Z,13.23
2023-01-06T10:05:23.326Z,14.27
2023-01-06T10:08:02.105Z,11.93
2023-01-06T10:10:49.383Z,16.90
2023-01-06T10:13:23.050Z,19.67
2023-01-06T10:16:17.940Z,11.60
2023-01-06T10:18:59.940Z,15.10
2023-01-06T10:22:07.975Z,13.40
2023-01-06T10:24:47.953Z,17.27
2023-01-06T10:27:36.175Z,13.83
2023-01-06T10:30:06.106Z,16.37
2023-01-06T10:32:36.269Z,18.27
2023-01-06T10:35:03.624Z,10.83
2023-01-06T10:37:39.788Z,11.77
2023-01-06T10:40:18.186Z,9.70
2023-01-06T10:42:59.845Z,9.10
2023-01-06T10:45:35.161Z,11.50
2023-01-06T10:48:04.477Z,9.73
2023-01-06T10:50:34.303Z,9.77
2023-01-06T10:53:01.170Z,12.00
2023-01-06T10:55:31.904Z,11.03
2023-01-06T10:58:07.395Z,12.30
2023-01-06T11:00:34.971Z,12.43
2023-01-06T11:03:31.415Z,14.30
2023-01-06T11:06:14.890Z,11.30
2023-01-06T11:08:42.057Z,12.97
2023-01-06T11:11:27.264Z,13.60
2023-01-06T11:13:58.897Z,14.00
2023-01-06T11:16:32.217Z,11.37
2023-01-06T11:19:04.916Z,13.27
2023-01-06T11:21:46.870Z,15.93
2023-01-06T11:24:18.996Z,16.50
2023-01-06T11:26:51.187Z,14.30
2023-01-06T11:29:36.396Z,14.90
2023-01-06T11:32:26.641Z,14.90
2023-01-06T11:34:56.693Z,11.00
2023-01-06T11:37:36.011Z,12.17
2023-01-06T11:40:16.231Z,11.17
2023-01-06T11:42:44.187Z,9.90
2023-01-06T11:45:28.970Z,10.63
2023-01-06T11:47:56.391Z,12.03
2023-01-06T11:50:23.345Z,19.37
2023-01-06T11:53:02.507Z,10.13
2023-01-06T11:55:30.688Z,17.87
2023-01-06T11:58:08.782Z,16.23
2023-01-06T12:01:08.161Z,10.30
2023-01-06T12:03:43.554Z,14.43
2023-01-06T12:06:37.019Z,15.23
2023-01-06T12:09:24.341Z,9.77
2023-01-06T12:11:56.534Z,10.50
2023-01-06T12:14:29.528Z,13.17
2023-01-06T12:17:27.944Z,14.37
2023-01-06T12:20:01.486Z,11.27
2023-01-06T12:22:31.060Z,8.30
2023-01-06T12:25:00.477Z,7.93
2023-01-06T12:27:35.613Z,8.20
2023-01-06T12:30:13.709Z,9.47
2023-01-06T12:32:45.066Z,11.43
2023-01-06T12:35:19.929Z,9.47
2023-01-06T12:37:53.618Z,10.27
2023-01-06T12:40:36.551Z,11.30
2023-01-06T12:43:19.746Z,11.07
2023-01-06T12:45:56.564Z,13.27
2023-01-06T12:48:54.363Z,31.33
2023-01-06T12:51:35.994Z,20.17
2023-01-06T12:54:12.269Z,12.10
2023-01-06T12:57:08.698Z,12.47
2023-01-06T12:59:50.771Z,12.43
2023-01-06T13:02:59.239Z,13.23
2023-01-06T13:05:53.887Z,11.93
2023-01-06T13:08:42.762Z,14.50
2023-01-06T13:11:30.571Z,16.07
2023-01-06T13:14:11.890Z,13.43
2023-01-06T13:16:54.051Z,14.57
2023-01-06T13:19:50.687Z,16.13
2023-01-06T13:22:36.663Z,16.87
2023-01-06T13:25:13.856Z,20.57
2023-01-06T13:28:08.642Z,18.73
2023-01-06T13:30:55.977Z,20.57
2023-01-06T13:33:42.977Z,21.67
2023-01-06T13:36:31.697Z,21.40
2023-01-06T13:39:04.219Z,40.40
2023-01-06T13:41:37.468Z,38.50
2023-01-06T13:44:11.381Z,28.10
2023-01-06T13:46:38.569Z,34.57
2023-01-06T13:49:07.267Z,39.93
2023-01-06T13:51:40.647Z,31.70
2023-01-06T13:54:07.486Z,43.43
2023-01-06T13:56:35.649Z,46.10
2023-01-06T13:59:24.337Z,24.20
2023-01-06T14:01:52.593Z,25.90
2023-01-06T14:04:42.541Z,24.97
2023-01-06T14:07:10.015Z,26.53
2023-01-06T14:09:45.771Z,28.23
2023-01-06T14:12:22.627Z,32.10
2023-01-06T14:14:59.086Z,40.40
2023-01-06T14:17:36.844Z,32.53
2023-01-06T14:20:04.215Z,33.63
2023-01-06T14:22:32.003Z,32.23
2023-01-06T14:25:02.754Z,35.57
2023-01-06T14:27:48.135Z,41.63
2023-01-06T14:30:27.599Z,43.63
2023-01-06T14:33:02.909Z,61.93
2023-01-06T14:35:43.800Z,62.83
2023-01-06T14:38:35.139Z,52.57
2023-01-06T14:41:06.257Z,50.40
2023-01-06T14:43:36.415Z,40.87
2023-01-06T14:46:31.846Z,39.90
2023-01-06T14:49:05.890Z,38.67
2023-01-06T14:51:34.474Z,33.60
2023-01-06T14:54:08.827Z,38.27
2023-01-06T14:56:36.481Z,33.00
2023-01-06T14:59:14.065Z,39.53
2023-01-06T15:01:43.906Z,35.63
2023-01-06T15:04:27.535Z,39.13
2023-01-06T15:07:00.224Z,40.17
2023-01-06T15:09:27.939Z,47.50
2023-01-06T15:11:54.891Z,44.70
2023-01-06T15:14:26.039Z,46.60
2023-01-06T15:16:54.962Z,44.90
2023-01-06T15:19:23.229Z,46.43
2023-01-06T15:21:52.268Z,40.43
2023-01-06T15:24:21.052Z,41.50
2023-01-06T15:26:50.137Z,42.17
2023-01-06T15:29:20.413Z,47.50
2023-01-06T15:31:49.437Z,47.83
2023-01-06T15:34:23.249Z,47.63
2023-01-06T15:36:53.262Z,39.77
2023-01-06T15:39:29.808Z,49.23
2023-01-06T15:41:58.389Z,39.10
2023-01-06T15:44:29.577Z,46.67
2023-01-06T15:47:15.999Z,42.93
2023-01-06T15:49:53.591Z,42.90
2023-01-06T15:52:39.591Z,41.30
2023-01-06T15:55:18.523Z,41.87
2023-01-06T15:57:54.382Z,35.60
2023-01-06T16:00:25.311Z,34.43
2023-01-06T16:02:52.265Z,44.73
2023-01-06T16:06:00.099Z,36.77
2023-01-06T16:08:29.092Z,36.20
2023-01-06T16:11:17.656Z,34.03
2023-01-06T16:13:59.005Z,33.90
2023-01-06T16:16:33.625Z,34.03
2023-01-06T16:19:20.390Z,35.23
2023-01-06T16:21:52.197Z,39.50
2023-01-06T16:24:24.257Z,36.40
2023-01-06T16:26:55.175Z,39.87
2023-01-06T16:29:36.470Z,37.93
2023-01-06T16:32:28.448Z,47.40
2023-01-06T16:35:01.898Z,33.43
2023-01-06T16:37:33.856Z,37.93
2023-01-06T16:40:01.045Z,39.20
2023-01-06T16:42:39.948Z,40.23
2023-01-06T16:45:09.178Z,39.87
2023-01-06T16:47:36.215Z,43.40
2023-01-06T16:50:14.126Z,44.40
2023-01-06T16:52:41.759Z,40.97
2023-01-06T16:55:13.004Z,45.13
2023-01-06T16:57:41.056Z,44.83
2023-01-06T17:00:15.460Z,39.27
2023-01-06T17:02:43.328Z,42.43
2023-01-06T17:05:30.682Z,40.83
2023-01-06T17:08:02.341Z,45.93
2023-01-06T17:10:29.639Z,43.10
2023-01-06T17:13:19.321Z,43.07
2023-01-06T17:15:46.933Z,39.43
2023-01-06T17:18:23.080Z,46.23
2023-01-06T17:20:51.462Z,52.03
2023-01-06T17:23:18.554Z,50.80
2023-01-06T17:25:45.972Z,48.20
2023-01-06T17:28:22.536Z,67.30
2023-01-06T17:30:49.765Z,52.30
2023-01-06T17:33:18.219Z,51.27
2023-01-06T17:35:48.719Z,57.60
2023-01-06T17:38:22.293Z,69.93
2023-01-06T17:40:50.145Z,88.27
2023-01-06T17:43:28.910Z,76.93
2023-01-06T17:45:56.008Z,66.07
2023-01-06T17:48:23.504Z,59.37
2023-01-06T17:50:54.001Z,62.63
2023-01-06T17:53:55.265Z,62.47
2023-01-06T17:56:23.797Z,76.83
2023-01-06T17:58:51.064Z,104.23
2023-01-06T18:01:25.356Z,50.90
2023-01-06T18:03:53.748Z,113.80
2023-01-06T18:06:37.995Z,67.63
2023-01-06T18:09:05.063Z,59.57
2023-01-06T18:11:34.715Z,52.70
2023-01-06T18:14:17.332Z,53.47
2023-01-06T18:16:47.273Z,45.67
2023-01-06T18:19:46.891Z,110.63
2023-01-06T18:22:19.854Z,71.47
2023-01-06T18:24:48.619Z,71.90
2023-01-06T18:27:33.435Z,62.00
2023-01-06T18:30:21.085Z,62.37
2023-01-06T18:32:50.220Z,96.53
2023-01-06T18:35:27.477Z,59.00
2023-01-06T18:37:59.124Z,74.73
2023-01-06T18:40:26.228Z,70.07
2023-01-06T18:42:54.511Z,61.17
2023-01-06T18:45:26.746Z,82.77
2023-01-06T18:48:13.999Z,69.87
2023-01-06T18:50:44.514Z,69.50
2023-01-06T18:53:13.935Z,55.53
2023-01-06T18:55:50.953Z,54.97
2023-01-06T18:58:36.097Z,59.30
2023-01-06T19:01:15.020Z,63.90
2023-01-06T19:03:54.134Z,55.20
2023-01-06T19:06:28.446Z,54.03
2023-01-06T19:08:56.689Z,51.27
2023-01-06T19:11:26.275Z,50.50
2023-01-06T19:13:58.184Z,52.63
2023-01-06T19:16:43.603Z,57.33
2023-01-06T19:19:22.444Z,53.17
2023-01-06T19:21:50.274Z,49.93
2023-01-06T19:24:37.547Z,74.07
2023-01-06T19:27:20.317Z,59.87
2023-01-06T19:29:47.125Z,52.33
2023-01-06T19:32:15.184Z,50.33
2023-01-06T19:34:42.069Z,50.17
2023-01-06T19:37:16.686Z,78.10
2023-01-06T19:39:53.268Z,58.63
2023-01-06T19:42:30.200Z,57.87
2023-01-06T19:45:00.222Z,56.10
2023-01-06T19:47:31.601Z,54.10
2023-01-06T19:50:06.958Z,52.83
2023-01-06T19:52:37.717Z,54.13
2023-01-06T19:55:30.369Z,64.17
2023-01-06T19:58:17.990Z,62.50
2023-01-06T20:00:53.363Z,63.10
2023-01-06T20:03:33.874Z,65.40
2023-01-06T20:06:01.281Z,62.20
2023-01-06T20:08:28.287Z,60.20
2023-01-06T20:10:55.314Z,69.57
2023-01-06T20:13:22.285Z,71.03
2023-01-06T20:15:49.024Z,66.77
2023-01-06T20:18:16.090Z,68.40
2023-01-06T20:20:42.923Z,70.57
2023-01-06T20:23:11.136Z,68.23
2023-01-06T20:25:37.988Z,70.13
2023-01-06T20:28:05.282Z,78.07
2023-01-06T20:30:31.993Z,63.60
2023-01-06T20:32:59.002Z,67.57
2023-01-06T20:35:25.848Z,70.97
2023-01-06T20:37:52.857Z,65.53
2023-01-06T20:40:19.780Z,61.30
2023-01-06T20:42:46.888Z,54.93
2023-01-06T20:45:13.805Z,58.83
2023-01-06T20:47:41.850Z,54.13
2023-01-06T20:50:12.643Z,65.83
2023-01-06T20:52:41.192Z,54.70
2023-01-06T20:55:08.561Z,51.80
2023-01-06T20:57:35.856Z,51.27
2023-01-06T21:00:03.310Z,48.13
2023-01-06T21:02:30.460Z,43.37
2023-01-06T21:04:57.540Z,39.53
2023-01-06T21:07:24.596Z,41.57
2023-01-06T21:09:51.435Z,39.83
2023-01-06T21:12:18.496Z,45.13
2023-01-06T21:14:45.203Z,45.97
2023-01-06T21:17:12.308Z,42.80
2023-01-06T21:19:39.061Z,40.63
2023-01-06T21:22:06.031Z,45.47
2023-01-06T21:24:33.072Z,43.53
2023-01-06T21:27:00.123Z,49.73
2023-01-06T21:29:26.889Z,42.90
2023-01-06T21:31:54.463Z,38.70
2023-01-06T21:34:21.416Z,36.77
2023-01-06T21:36:48.441Z,39.97
2023-01-06T21:39:16.450Z,43.70
2023-01-06T21:42:02.128Z,38.10
2023-01-06T21:44:28.913Z,43.30
2023-01-06T21:46:55.935Z,42.70
2023-01-06T21:49:22.749Z,42.10
2023-01-06T21:51:51.245Z,42.23
2023-01-06T21:54:18.160Z,37.17
2023-01-06T21:56:45.359Z,42.43
2023-01-06T21:59:12.209Z,40.20
2023-01-06T22:01:39.318Z,42.00
2023-01-06T22:04:06.189Z,38.43
2023-01-06T22:06:34.209Z,38.73
2023-01-06T22:09:05.501Z,37.60
2023-01-06T22:11:33.544Z,38.37
2023-01-06T22:14:00.567Z,36.93
2023-01-06T22:16:27.757Z,39.73
2023-01-06T22:18:57.158Z,37.40
2023-01-06T22:21:26.032Z,39.93
2023-01-06T22:23:55.905Z,38.77
2023-01-06T22:26:22.932Z,35.30
2023-01-06T22:28:49.830Z,41.30
2023-01-06T22:31:18.927Z,37.00
2023-01-06T22:33:45.734Z,39.00
2023-01-06T22:36:12.775Z,38.93
2023-01-06T22:38:39.539Z,38.47
2023-01-06T22:41:07.162Z,35.07
2023-01-06T22:43:34.075Z,39.23
2023-01-06T22:46:01.208Z,33.80
2023-01-06T22:48:28.256Z,41.13
2023-01-06T22:50:57.375Z,38.40
2023-01-06T22:53:24.482Z,37.73
2023-01-06T22:56:06.141Z,36.50
2023-01-06T22:58:35.267Z,36.50
2023-01-06T23:01:03.281Z,38.33
2023-01-06T23:03:30.368Z,34.00
2023-01-06T23:06:02.345Z,34.87
2023-01-06T23:08:31.616Z,29.83
2023-01-06T23:11:11.370Z,31.60
2023-01-06T23:13:39.457Z,34.93
2023-01-06T23:16:08.313Z,31.67
2023-01-06T23:18:37.487Z,31.23
2023-01-06T23:21:14.737Z,33.60
2023-01-06T23:23:42.471Z,29.23
2023-01-06T23:26:24.230Z,30.97
2023-01-06T23:28:52.866Z,33.53
2023-01-06T23:31:22.706Z,32.90
2023-01-06T23:33:58.695Z,29.80
2023-01-06T23:36:27.765Z,29.23
2023-01-06T23:38:55.590Z,27.03
2023-01-06T23:41:28.138Z,42.00
2023-01-06T23:43:56.423Z,32.93
2023-01-06T23:46:27.635Z,31.03
2023-01-06T23:48:55.315Z,32.83
2023-01-06T23:51:23.472Z,27.50
2023-01-06T23:53:50.788Z,32.30
2023-01-06T23:56:25.842Z,30.70
2023-01-06T23:58:55.447Z,30.43
